Time;durP1;ratioP1;P1;durP2;ratioP2;P2;SDS_P1;SDS_P2;PMS_P1;PMS_P2;Temp;Humidity;BMP_temperature;BMP_pressure;BME280_temperature;BME280_humidity;BME280_pressure;Samples;Min_cycle;Max_cycle;Signal;HPM_P1;HPM_P2
2023/08/17 00:02:07;;;;;;;4.97;4.57;;;;;;;;;;5059403;28;20213;-68
2023/08/17 00:04:35;;;;;;;5.55;4.93;;;;;;;;;;5058692;28;20198;-66
2023/08/17 00:07:02;;;;;;;5.65;5.15;;;;;;;;;;5061426;28;20265;-67
2023/08/17 00:09:30;;;;;;;5.45;4.82;;;;;;;;;;5056416;28;20243;-67
2023/08/17 00:11:57;;;;;;;6.28;5.32;;;;;;;;;;5061601;28;20677;-70
2023/08/17 00:14:24;;;;;;;6.32;4.85;;;;;;;;;;5058403;28;20217;-66
2023/08/17 00:16:52;;;;;;;8.95;5.15;;;;;;;;;;5062158;28;20599;-66
2023/08/17 00:19:19;;;;;;;6.00;4.80;;;;;;;;;;5052890;28;20309;-73
2023/08/17 00:21:46;;;;;;;4.97;4.57;;;;;;;;;;5056679;28;20213;-71
2023/08/17 00:24:14;;;;;;;5.03;4.63;;;;;;;;;;5056524;28;20205;-66
2023/08/17 00:26:41;;;;;;;6.13;4.80;;;;;;;;;;5057565;28;20225;-68
2023/08/17 00:29:08;;;;;;;5.72;5.05;;;;;;;;;;5062013;28;20263;-67
2023/08/17 00:31:35;;;;;;;5.28;4.78;;;;;;;;;;5055960;28;20213;-65
2023/08/17 00:34:03;;;;;;;5.38;4.97;;;;;;;;;;5057649;28;20209;-67
2023/08/17 00:36:30;;;;;;;5.97;5.25;;;;;;;;;;5059740;28;20641;-66
2023/08/17 00:38:57;;;;;;;7.50;4.65;;;;;;;;;;5056129;28;20221;-70
2023/08/17 00:41:24;;;;;;;5.03;4.63;;;;;;;;;;5059186;28;20238;-67
2023/08/17 00:43:52;;;;;;;4.82;4.40;;;;;;;;;;5057618;28;20202;-66
2023/08/17 00:46:22;;;;;;;5.70;4.75;;;;;;;;;;5059516;28;20214;-66
2023/08/17 00:48:49;;;;;;;5.18;4.45;;;;;;;;;;5058134;28;20286;-66
2023/08/17 00:51:16;;;;;;;5.13;4.40;;;;;;;;;;5057079;28;20232;-70
2023/08/17 00:53:44;;;;;;;6.00;4.20;;;;;;;;;;5061894;28;20248;-66
2023/08/17 00:56:11;;;;;;;5.55;4.20;;;;;;;;;;5057393;28;20249;-69
2023/08/17 00:58:39;;;;;;;4.90;4.45;;;;;;;;;;5057707;28;20726;-69
2023/08/17 01:01:06;;;;;;;5.15;4.20;;;;;;;;;;5061881;28;20206;-66
2023/08/17 01:03:34;;;;;;;5.10;4.60;;;;;;;;;;5062694;28;20204;-66
2023/08/17 01:06:02;;;;;;;14.20;9.30;;;;;;;;;;5063230;28;20232;-67
2023/08/17 01:08:30;;;;;;;8.80;6.97;;;;;;;;;;5054530;28;20233;-67
2023/08/17 01:11:06;;;;;;;8.00;4.78;;;;;;;;;;5058783;28;20217;-66
2023/08/17 01:13:53;;;;;;;5.63;4.72;;;;;;;;;;5058883;28;20201;-66
2023/08/17 01:16:25;;;;;;;6.68;4.63;;;;;;;;;;5062274;28;20240;-66
2023/08/17 01:18:53;;;;;;;5.63;4.88;;;;;;;;;;5059584;28;20201;-66
2023/08/17 01:21:25;;;;;;;4.82;4.43;;;;;;;;;;5056044;28;20206;-68
2023/08/17 01:23:52;;;;;;;5.03;4.45;;;;;;;;;;5055864;28;20255;-69
2023/08/17 01:26:19;;;;;;;4.82;4.43;;;;;;;;;;5061184;28;20233;-68
2023/08/17 01:28:47;;;;;;;4.90;4.45;;;;;;;;;;5057511;28;20247;-65
2023/08/17 01:31:41;;;;;;;5.00;4.50;;;;;;;;;;5054626;28;20206;-66
2023/08/17 01:34:10;;;;;;;5.18;4.68;;;;;;;;;;5051708;28;20301;-72
2023/08/17 01:36:40;;;;;;;5.68;5.18;;;;;;;;;;5055713;28;20222;-68
2023/08/17 01:39:08;;;;;;;5.70;4.95;;;;;;;;;;5056997;28;20679;-68
2023/08/17 01:41:35;;;;;;;7.45;6.10;;;;;;;;;;5059935;28;20547;-67
2023/08/17 01:44:03;;;;;;;4.88;4.38;;;;;;;;;;5052559;28;20205;-65
2023/08/17 01:46:32;;;;;;;7.85;5.32;;;;;;;;;;5056432;28;20225;-66
2023/08/17 01:48:59;;;;;;;6.10;4.75;;;;;;;;;;5053485;28;20212;-67
2023/08/17 01:51:27;;;;;;;5.30;4.43;;;;;;;;;;5059283;28;20206;-69
2023/08/17 01:53:54;;;;;;;5.28;4.50;;;;;;;;;;5054058;28;20288;-67
2023/08/17 01:56:22;;;;;;;5.25;4.75;;;;;;;;;;5055971;28;20230;-68
2023/08/17 01:58:49;;;;;;;7.57;5.75;;;;;;;;;;5074768;28;20224;-70
2023/08/17 02:01:16;;;;;;;7.03;5.55;;;;;;;;;;5079074;28;20320;-68
2023/08/17 02:03:44;;;;;;;6.07;5.50;;;;;;;;;;5058081;28;20197;-67
2023/08/17 02:06:11;;;;;;;7.45;5.38;;;;;;;;;;5060761;28;20703;-66
2023/08/17 02:08:39;;;;;;;5.60;4.78;;;;;;;;;;5061109;28;20714;-67
2023/08/17 02:11:06;;;;;;;5.85;5.32;;;;;;;;;;5053016;28;20205;-69
2023/08/17 02:13:33;;;;;;;5.85;5.13;;;;;;;;;;5060436;28;20308;-67
2023/08/17 02:16:00;;;;;;;5.95;5.40;;;;;;;;;;5055782;28;20663;-66
2023/08/17 02:18:30;;;;;;;6.97;5.10;;;;;;;;;;5060619;28;20226;-70
2023/08/17 02:20:58;;;;;;;6.18;5.47;;;;;;;;;;5059521;28;20206;-67
2023/08/17 02:23:25;;;;;;;5.43;4.93;;;;;;;;;;5063029;28;20263;-68
2023/08/17 02:25:52;;;;;;;6.15;5.47;;;;;;;;;;5061235;28;20623;-70
2023/08/17 02:28:19;;;;;;;5.55;5.05;;;;;;;;;;5057886;28;20252;-65
2023/08/17 02:30:47;;;;;;;6.65;5.22;;;;;;;;;;5053613;28;20255;-72
2023/08/17 02:33:15;;;;;;;5.72;4.90;;;;;;;;;;5057801;28;20232;-66
2023/08/17 02:35:42;;;;;;;6.15;5.55;;;;;;;;;;5057246;28;20197;-66
2023/08/17 02:38:09;;;;;;;7.32;5.15;;;;;;;;;;5061768;28;20225;-68
2023/08/17 02:40:37;;;;;;;5.78;4.65;;;;;;;;;;5059535;28;20205;-66
2023/08/17 02:43:04;;;;;;;5.57;5.07;;;;;;;;;;5056187;28;20209;-67
2023/08/17 02:45:31;;;;;;;5.10;4.70;;;;;;;;;;5059346;28;20252;-67
2023/08/17 02:47:58;;;;;;;5.20;4.80;;;;;;;;;;5057844;28;20290;-67
2023/08/17 02:50:26;;;;;;;6.22;4.97;;;;;;;;;;5053234;28;20246;-66
2023/08/17 02:52:53;;;;;;;5.75;4.68;;;;;;;;;;5056842;28;20259;-67
2023/08/17 02:55:21;;;;;;;5.38;4.88;;;;;;;;;;5055216;28;20220;-67
2023/08/17 02:57:48;;;;;;;5.43;4.93;;;;;;;;;;5053184;28;20719;-64
2023/08/17 03:00:15;;;;;;;4.95;4.45;;;;;;;;;;5058263;28;20226;-67
2023/08/17 03:02:43;;;;;;;6.38;5.63;;;;;;;;;;5053734;28;20213;-68
2023/08/17 03:05:10;;;;;;;7.15;6.45;;;;;;;;;;5054249;28;20194;-67
2023/08/17 03:07:37;;;;;;;7.57;5.93;;;;;;;;;;5054719;28;20275;-67
2023/08/17 03:10:05;;;;;;;6.53;5.97;;;;;;;;;;5051209;28;20213;-66
2023/08/17 03:12:32;;;;;;;6.50;5.75;;;;;;;;;;5054542;28;20271;-68
2023/08/17 03:14:59;;;;;;;7.35;5.40;;;;;;;;;;5054012;28;20205;-69
2023/08/17 03:17:27;;;;;;;5.40;4.88;;;;;;;;;;5054299;28;20689;-66
2023/08/17 03:19:55;;;;;;;21.60;14.38;;;;;;;;;;5056131;28;20209;-70
2023/08/17 03:22:22;;;;;;;64.63;35.38;;;;;;;;;;5060682;28;20197;-66
2023/08/17 03:24:49;;;;;;;41.38;24.38;;;;;;;;;;5058290;28;20272;-66
2023/08/17 03:27:17;;;;;;;17.52;9.75;;;;;;;;;;5055766;28;20217;-67
2023/08/17 03:29:44;;;;;;;12.30;9.25;;;;;;;;;;5059572;28;20209;-68
2023/08/17 03:32:11;;;;;;;8.45;6.80;;;;;;;;;;5069482;28;20204;-65
2023/08/17 03:34:38;;;;;;;6.43;5.50;;;;;;;;;;5056637;28;20212;-68
2023/08/17 03:37:06;;;;;;;6.50;5.90;;;;;;;;;;5054824;28;20734;-67
2023/08/17 03:39:33;;;;;;;8.07;6.90;;;;;;;;;;5062067;28;20577;-67
2023/08/17 03:42:00;;;;;;;9.90;6.80;;;;;;;;;;5062582;28;20605;-66
2023/08/17 03:44:28;;;;;;;10.10;6.60;;;;;;;;;;5061440;28;20260;-67
2023/08/17 03:46:55;;;;;;;7.50;5.80;;;;;;;;;;5060152;28;20256;-66
2023/08/17 03:49:22;;;;;;;7.32;4.75;;;;;;;;;;5057960;28;20198;-67
2023/08/17 03:51:49;;;;;;;4.57;4.18;;;;;;;;;;5061101;28;20213;-67
2023/08/17 03:54:18;;;;;;;5.03;4.25;;;;;;;;;;5058211;28;20201;-68
2023/08/17 03:56:45;;;;;;;4.63;4.22;;;;;;;;;;5053438;28;20614;-67
2023/08/17 03:59:12;;;;;;;6.25;5.00;;;;;;;;;;5059673;28;20221;-67
2023/08/17 04:01:42;;;;;;;5.60;4.30;;;;;;;;;;5062629;28;20287;-68
2023/08/17 04:04:12;;;;;;;5.47;5.00;;;;;;;;;;5056034;28;20320;-68
2023/08/17 04:06:40;;;;;;;5.25;4.75;;;;;;;;;;5055013;28;20656;-64
2023/08/17 04:09:08;;;;;;;5.35;4.80;;;;;;;;;;5054479;28;20214;-71
2023/08/17 04:11:38;;;;;;;5.32;4.70;;;;;;;;;;5052841;28;20205;-65
2023/08/17 04:14:06;;;;;;;5.47;4.93;;;;;;;;;;5055427;28;20209;-68
2023/08/17 04:16:33;;;;;;;5.28;4.82;;;;;;;;;;5056412;28;20749;-68
2023/08/17 04:19:01;;;;;;;5.68;4.85;;;;;;;;;;5057020;28;20228;-67
2023/08/17 04:21:28;;;;;;;8.40;5.50;;;;;;;;;;5054881;28;20193;-65
2023/08/17 04:23:56;;;;;;;5.85;5.05;;;;;;;;;;5057327;28;20206;-66
2023/08/17 04:26:24;;;;;;;5.18;4.75;;;;;;;;;;5058301;28;20233;-66
2023/08/17 04:28:51;;;;;;;9.45;4.65;;;;;;;;;;5051775;28;20206;-68
2023/08/17 04:31:18;;;;;;;6.93;5.25;;;;;;;;;;5060818;28;20205;-68
2023/08/17 04:33:46;;;;;;;7.13;5.57;;;;;;;;;;5060823;28;20206;-66
2023/08/17 04:36:13;;;;;;;5.68;5.03;;;;;;;;;;5054389;28;20739;-64
2023/08/17 04:38:40;;;;;;;5.55;5.05;;;;;;;;;;5061927;28;20225;-66
2023/08/17 04:41:08;;;;;;;6.78;5.53;;;;;;;;;;5063682;28;20668;-68
2023/08/17 04:43:35;;;;;;;6.72;6.00;;;;;;;;;;5058629;28;20197;-67
2023/08/17 04:46:02;;;;;;;5.55;5.05;;;;;;;;;;5058323;28;20705;-66
2023/08/17 04:48:30;;;;;;;5.47;4.93;;;;;;;;;;5058196;28;20206;-68
2023/08/17 04:50:57;;;;;;;8.05;5.20;;;;;;;;;;5056724;28;20652;-69
2023/08/17 04:53:24;;;;;;;6.13;5.22;;;;;;;;;;5059569;28;20224;-66
2023/08/17 04:55:51;;;;;;;7.57;5.15;;;;;;;;;;5054416;28;20667;-67
2023/08/17 04:58:19;;;;;;;5.80;5.30;;;;;;;;;;5058886;28;20225;-69
2023/08/17 05:00:47;;;;;;;5.47;4.80;;;;;;;;;;5060157;28;20276;-66
2023/08/17 05:03:15;;;;;;;5.68;5.07;;;;;;;;;;5058244;28;20202;-65
2023/08/17 05:05:57;;;;;;;5.35;4.85;;;;;;;;;;5055889;28;20204;-68
2023/08/17 05:08:25;;;;;;;6.80;5.13;;;;;;;;;;5060385;28;20248;-65
2023/08/17 05:10:52;;;;;;;6.63;5.15;;;;;;;;;;5059769;28;20202;-66
2023/08/17 05:13:19;;;;;;;6.57;5.55;;;;;;;;;;5057719;28;20278;-71
2023/08/17 05:15:47;;;;;;;7.88;6.03;;;;;;;;;;5061050;28;20217;-67
2023/08/17 05:18:14;;;;;;;6.80;6.10;;;;;;;;;;5056757;28;20234;-71
2023/08/17 05:20:41;;;;;;;5.93;5.40;;;;;;;;;;5057695;28;20206;-67
2023/08/17 05:23:09;;;;;;;6.15;5.60;;;;;;;;;;5063649;28;20247;-65
2023/08/17 05:25:36;;;;;;;6.30;5.10;;;;;;;;;;5060479;28;20202;-70
2023/08/17 05:28:03;;;;;;;5.45;4.93;;;;;;;;;;5060191;28;20768;-66
2023/08/17 05:30:31;;;;;;;6.40;5.13;;;;;;;;;;5058728;28;20212;-64
2023/08/17 05:32:58;;;;;;;5.30;4.75;;;;;;;;;;5060434;28;20443;-67
2023/08/17 05:35:26;;;;;;;5.68;5.10;;;;;;;;;;5060075;28;20205;-66
2023/08/17 05:37:53;;;;;;;5.50;5.00;;;;;;;;;;5059288;28;20233;-72
2023/08/17 05:40:20;;;;;;;5.07;4.57;;;;;;;;;;5059496;28;20197;-67
2023/08/17 05:42:48;;;;;;;5.50;5.00;;;;;;;;;;5062822;28;20216;-69
2023/08/17 05:45:15;;;;;;;5.35;4.85;;;;;;;;;;5060122;28;20205;-67
2023/08/17 05:47:43;;;;;;;6.72;4.90;;;;;;;;;;5062218;28;20215;-71
2023/08/17 05:50:10;;;;;;;4.47;4.00;;;;;;;;;;5059019;28;20229;-69
2023/08/17 05:52:37;;;;;;;4.07;3.70;;;;;;;;;;5060043;28;20202;-68
2023/08/17 05:55:05;;;;;;;6.90;4.20;;;;;;;;;;5059973;28;20651;-66
2023/08/17 05:57:32;;;;;;;4.75;4.30;;;;;;;;;;5061764;28;20224;-65
2023/08/17 05:59:59;;;;;;;4.45;4.05;;;;;;;;;;5058759;28;20313;-66
2023/08/17 06:02:26;;;;;;;4.45;4.05;;;;;;;;;;5062491;28;20221;-66
2023/08/17 06:04:54;;;;;;;7.28;4.20;;;;;;;;;;5060840;28;20205;-71
2023/08/17 06:07:21;;;;;;;4.72;4.32;;;;;;;;;;5055946;28;20221;-65
2023/08/17 06:09:48;;;;;;;4.90;4.35;;;;;;;;;;5058166;28;20209;-67
2023/08/17 06:12:17;;;;;;;5.10;4.40;;;;;;;;;;5061845;28;20206;-65
2023/08/17 06:14:44;;;;;;;4.70;4.30;;;;;;;;;;5061561;28;20699;-67
2023/08/17 06:17:11;;;;;;;5.32;4.47;;;;;;;;;;5064930;28;20217;-65
2023/08/17 06:19:39;;;;;;;6.63;5.30;;;;;;;;;;5059996;28;20652;-66
2023/08/17 06:22:07;;;;;;;4.68;4.20;;;;;;;;;;5064953;28;20204;-69
2023/08/17 06:24:34;;;;;;;4.95;4.18;;;;;;;;;;5066662;28;20617;-65
2023/08/17 06:27:01;;;;;;;4.95;4.45;;;;;;;;;;5057989;28;20217;-67
2023/08/17 06:29:28;;;;;;;4.82;4.35;;;;;;;;;;5057244;28;20205;-65
2023/08/17 06:31:56;;;;;;;5.05;4.60;;;;;;;;;;5057480;28;20547;-65
2023/08/17 06:34:23;;;;;;;5.38;4.88;;;;;;;;;;5054470;28;20201;-68
2023/08/17 06:36:58;;;;;;;5.00;4.60;;;;;;;;;;5058399;28;20703;-65
2023/08/17 06:39:25;;;;;;;5.15;4.65;;;;;;;;;;5058776;28;20748;-67
2023/08/17 06:41:52;;;;;;;6.32;5.40;;;;;;;;;;5058194;28;20225;-65
2023/08/17 06:44:19;;;;;;;5.78;5.10;;;;;;;;;;5058317;28;20202;-66
2023/08/17 06:46:47;;;;;;;5.65;5.15;;;;;;;;;;5057308;28;20719;-67
2023/08/17 06:49:14;;;;;;;6.10;5.60;;;;;;;;;;5058537;28;20210;-66
2023/08/17 06:51:42;;;;;;;6.25;5.68;;;;;;;;;;5061823;28;20217;-65
2023/08/17 06:54:09;;;;;;;7.70;5.43;;;;;;;;;;5060270;28;20205;-66
2023/08/17 06:56:36;;;;;;;5.88;5.28;;;;;;;;;;5063360;28;20226;-65
2023/08/17 06:59:04;;;;;;;5.88;5.38;;;;;;;;;;5060995;28;20274;-66
2023/08/17 07:01:31;;;;;;;6.43;5.80;;;;;;;;;;5057732;28;20206;-66
2023/08/17 07:03:58;;;;;;;7.40;6.43;;;;;;;;;;5059473;28;20222;-66
2023/08/17 07:06:26;;;;;;;8.43;7.07;;;;;;;;;;5063161;28;20221;-66
2023/08/17 07:08:53;;;;;;;7.72;7.07;;;;;;;;;;5059689;28;20213;-68
2023/08/17 07:11:20;;;;;;;8.98;6.40;;;;;;;;;;5066805;28;20585;-66
2023/08/17 07:13:48;;;;;;;9.98;7.45;;;;;;;;;;5065338;28;20278;-67
2023/08/17 07:16:15;;;;;;;7.82;7.13;;;;;;;;;;5058612;28;20230;-65
2023/08/17 07:18:43;;;;;;;7.03;6.40;;;;;;;;;;5059368;28;20222;-66
2023/08/17 07:21:10;;;;;;;6.75;6.00;;;;;;;;;;5063136;28;20721;-66
2023/08/17 07:23:37;;;;;;;6.00;5.40;;;;;;;;;;5059159;28;20640;-67
2023/08/17 07:26:05;;;;;;;6.25;5.70;;;;;;;;;;5062796;28;20271;-66
2023/08/17 07:28:32;;;;;;;9.65;5.00;;;;;;;;;;5059212;28;20274;-67
2023/08/17 07:30:59;;;;;;;4.22;3.83;;;;;;;;;;5060341;28;20213;-66
2023/08/17 07:33:26;;;;;;;3.90;3.60;;;;;;;;;;5056273;28;20688;-68
2023/08/17 07:35:55;;;;;;;4.05;3.65;;;;;;;;;;5076455;28;20190;-73
2023/08/17 07:38:22;;;;;;;4.65;4.20;;;;;;;;;;5080345;28;20288;-69
2023/08/17 07:40:50;;;;;;;4.80;4.30;;;;;;;;;;5062706;28;20246;-72
2023/08/17 07:43:17;;;;;;;4.13;3.78;;;;;;;;;;5063770;28;20252;-67
2023/08/17 07:45:44;;;;;;;3.78;3.42;;;;;;;;;;5063444;28;20201;-66
2023/08/17 07:48:12;;;;;;;4.53;3.67;;;;;;;;;;5061361;28;20725;-66
2023/08/17 07:50:39;;;;;;;6.57;3.88;;;;;;;;;;5061443;28;20229;-67
2023/08/17 07:53:06;;;;;;;4.90;4.20;;;;;;;;;;5056832;28;20666;-68
2023/08/17 07:55:34;;;;;;;4.75;4.35;;;;;;;;;;5057870;28;20271;-64
2023/08/17 07:58:02;;;;;;;5.78;3.90;;;;;;;;;;5062416;28;20723;-65
2023/08/17 08:00:29;;;;;;;4.45;4.10;;;;;;;;;;5060942;28;20280;-66
2023/08/17 08:02:56;;;;;;;3.92;3.63;;;;;;;;;;5060807;28;20238;-66
2023/08/17 08:05:23;;;;;;;5.22;4.10;;;;;;;;;;5058815;28;20202;-66
2023/08/17 08:07:51;;;;;;;4.97;4.07;;;;;;;;;;5062553;28;20304;-66
2023/08/17 08:10:18;;;;;;;4.63;4.22;;;;;;;;;;5047429;28;20221;-67
2023/08/17 08:12:45;;;;;;;4.55;4.15;;;;;;;;;;5063712;28;20284;-65
2023/08/17 08:15:12;;;;;;;4.80;4.38;;;;;;;;;;5061311;28;20807;-66
2023/08/17 08:17:40;;;;;;;4.25;3.67;;;;;;;;;;5058805;28;20240;-65
2023/08/17 08:20:08;;;;;;;4.15;3.83;;;;;;;;;;5054497;28;20229;-64
2023/08/17 08:22:35;;;;;;;6.75;4.88;;;;;;;;;;5059604;28;20286;-69
2023/08/17 08:25:02;;;;;;;5.05;4.32;;;;;;;;;;5064948;28;20209;-67
2023/08/17 08:27:29;;;;;;;4.13;3.70;;;;;;;;;;5057749;28;20275;-65
2023/08/17 08:29:57;;;;;;;4.70;4.30;;;;;;;;;;5060755;28;20206;-65
2023/08/17 08:32:24;;;;;;;5.40;3.65;;;;;;;;;;5061378;28;20672;-66
2023/08/17 08:34:54;;;;;;;5.60;4.10;;;;;;;;;;5058268;28;20747;-67
2023/08/17 08:37:21;;;;;;;5.90;4.28;;;;;;;;;;5060390;28;20230;-68
2023/08/17 08:39:53;;;;;;;5.20;4.68;;;;;;;;;;5061634;28;20225;-67
2023/08/17 08:42:20;;;;;;;7.22;4.20;;;;;;;;;;5057070;28;20205;-66
2023/08/17 08:44:49;;;;;;;4.35;3.95;;;;;;;;;;5057591;28;20198;-68
2023/08/17 08:47:17;;;;;;;5.93;5.18;;;;;;;;;;5059426;28;20646;-64
2023/08/17 08:50:04;;;;;;;5.32;4.82;;;;;;;;;;5063787;28;20202;-64
2023/08/17 08:52:34;;;;;;;5.75;4.53;;;;;;;;;;5067073;28;20205;-67
2023/08/17 08:55:14;;;;;;;6.75;5.45;;;;;;;;;;5059909;28;20220;-66
2023/08/17 08:57:43;;;;;;;6.13;4.82;;;;;;;;;;5061484;28;20654;-67
2023/08/17 09:00:12;;;;;;;5.82;4.68;;;;;;;;;;5057962;28;20233;-67
2023/08/17 09:02:39;;;;;;;5.57;4.78;;;;;;;;;;5059256;28;20867;-65
2023/08/17 09:05:09;;;;;;;5.47;4.82;;;;;;;;;;5058718;28;20205;-68
2023/08/17 09:07:38;;;;;;;5.95;4.70;;;;;;;;;;5063454;28;20710;-65
2023/08/17 09:10:05;;;;;;;5.70;4.93;;;;;;;;;;5063599;28;20601;-67
2023/08/17 09:12:32;;;;;;;4.60;4.20;;;;;;;;;;5060233;28;20209;-65
2023/08/17 09:15:07;;;;;;;5.95;4.90;;;;;;;;;;5075639;28;20312;-65
2023/08/17 09:17:34;;;;;;;5.07;4.65;;;;;;;;;;5058977;28;20599;-64
2023/08/17 09:20:03;;;;;;;5.93;5.03;;;;;;;;;;5058599;28;20286;-69
2023/08/17 09:22:41;;;;;;;5.90;5.13;;;;;;;;;;5063428;28;20206;-67
2023/08/17 09:25:09;;;;;;;5.70;5.20;;;;;;;;;;5058830;28;20208;-67
2023/08/17 09:27:41;;;;;;;6.18;5.05;;;;;;;;;;5065638;28;20214;-67
2023/08/17 09:30:12;;;;;;;5.55;5.05;;;;;;;;;;5058910;28;20205;-67
2023/08/17 09:32:39;;;;;;;5.32;4.90;;;;;;;;;;5074011;28;21552;-66
2023/08/17 09:35:07;;;;;;;5.55;5.05;;;;;;;;;;5062167;28;20300;-66
2023/08/17 09:37:34;;;;;;;4.78;4.38;;;;;;;;;;5054596;28;20226;-67
2023/08/17 09:40:02;;;;;;;5.57;4.63;;;;;;;;;;5055288;28;20635;-65
2023/08/17 09:42:31;;;;;;;4.90;4.47;;;;;;;;;;5060543;28;20231;-67
2023/08/17 09:45:00;;;;;;;5.30;4.80;;;;;;;;;;5053989;28;20260;-69
2023/08/17 09:47:28;;;;;;;4.95;4.45;;;;;;;;;;5055903;28;20320;-65
2023/08/17 09:49:56;;;;;;;4.93;4.53;;;;;;;;;;5059421;28;20202;-65
2023/08/17 09:52:23;;;;;;;5.35;4.70;;;;;;;;;;5059682;28;20212;-68
2023/08/17 09:54:54;;;;;;;5.85;5.15;;;;;;;;;;5060199;28;20213;-65
2023/08/17 09:57:22;;;;;;;4.32;4.03;;;;;;;;;;5059497;28;20226;-65
2023/08/17 09:59:51;;;;;;;4.72;4.22;;;;;;;;;;5055964;28;20305;-66
2023/08/17 10:02:23;;;;;;;4.55;3.88;;;;;;;;;;5058790;28;20215;-66
2023/08/17 10:04:57;;;;;;;8.25;4.22;;;;;;;;;;5056021;28;20284;-68
2023/08/17 10:07:29;;;;;;;4.43;4.03;;;;;;;;;;5057213;28;20217;-65
2023/08/17 10:10:04;;;;;;;4.30;3.90;;;;;;;;;;5051978;28;20217;-67
2023/08/17 10:12:41;;;;;;;6.88;4.70;;;;;;;;;;5061137;28;20530;-64
2023/08/17 10:15:11;;;;;;;4.72;4.20;;;;;;;;;;5059392;28;20819;-68
2023/08/17 10:17:44;;;;;;;5.80;3.90;;;;;;;;;;5057390;28;20305;-67
2023/08/17 10:20:11;;;;;;;6.20;4.00;;;;;;;;;;5053016;28;20323;-65
2023/08/17 10:22:51;;;;;;;4.60;4.20;;;;;;;;;;5060471;28;20206;-67
2023/08/17 10:25:20;;;;;;;5.82;4.40;;;;;;;;;;5063697;28;20197;-71
2023/08/17 10:27:48;;;;;;;3.97;3.65;;;;;;;;;;5070016;28;20348;-67
2023/08/17 10:30:15;;;;;;;6.40;4.30;;;;;;;;;;5068046;28;20202;-68
2023/08/17 10:32:45;;;;;;;4.60;4.20;;;;;;;;;;5063178;28;20205;-66
2023/08/17 10:35:13;;;;;;;4.13;3.72;;;;;;;;;;5063603;28;20300;-65
2023/08/17 10:37:41;;;;;;;3.95;3.42;;;;;;;;;;5058140;28;20285;-64
2023/08/17 10:40:08;;;;;;;4.93;3.90;;;;;;;;;;5057460;28;20237;-64
2023/08/17 10:42:41;;;;;;;6.30;3.70;;;;;;;;;;5058698;28;20214;-65
2023/08/17 10:45:28;;;;;;;3.47;3.10;;;;;;;;;;5056195;28;20217;-66
2023/08/17 10:48:21;;;;;;;3.88;3.20;;;;;;;;;;5058781;28;20232;-70
2023/08/17 10:51:05;;;;;;;4.25;3.58;;;;;;;;;;5062116;28;20778;-66
2023/08/17 10:53:38;;;;;;;4.50;3.58;;;;;;;;;;5061266;28;20930;-66
2023/08/17 10:56:08;;;;;;;4.45;3.38;;;;;;;;;;5071035;28;20710;-69
2023/08/17 10:58:36;;;;;;;3.58;3.22;;;;;;;;;;5057311;28;20202;-64
2023/08/17 11:01:04;;;;;;;5.15;3.75;;;;;;;;;;5057850;28;20287;-70
2023/08/17 11:03:33;;;;;;;5.18;3.95;;;;;;;;;;5059995;28;20220;-66
2023/08/17 11:06:15;;;;;;;4.28;3.88;;;;;;;;;;5059715;28;20202;-66
2023/08/17 11:08:55;;;;;;;3.70;3.40;;;;;;;;;;5060944;28;20206;-67
2023/08/17 11:11:23;;;;;;;3.67;3.35;;;;;;;;;;5057538;28;20297;-65
2023/08/17 11:13:53;;;;;;;4.07;3.40;;;;;;;;;;5060386;28;20198;-67
2023/08/17 11:16:24;;;;;;;3.05;2.75;;;;;;;;;;5058002;28;20225;-65
2023/08/17 11:18:52;;;;;;;4.93;3.45;;;;;;;;;;5061435;28;20288;-66
2023/08/17 11:21:20;;;;;;;4.15;2.85;;;;;;;;;;5061478;28;20266;-67
2023/08/17 11:23:48;;;;;;;5.05;3.50;;;;;;;;;;5053626;28;20227;-72
2023/08/17 11:26:18;;;;;;;3.85;3.55;;;;;;;;;;5061160;28;20704;-63
2023/08/17 11:28:47;;;;;;;3.47;3.20;;;;;;;;;;5061920;28;20208;-67
2023/08/17 11:31:15;;;;;;;4.78;3.83;;;;;;;;;;5062568;28;20233;-68
2023/08/17 11:33:46;;;;;;;4.80;3.58;;;;;;;;;;5059445;28;20201;-65
2023/08/17 11:36:14;;;;;;;4.03;3.42;;;;;;;;;;5056733;28;20230;-64
2023/08/17 11:38:43;;;;;;;3.70;3.30;;;;;;;;;;5060290;28;20225;-65
2023/08/17 11:41:11;;;;;;;4.57;4.18;;;;;;;;;;5062743;28;20225;-65
2023/08/17 11:43:43;;;;;;;3.63;3.28;;;;;;;;;;5057001;28;20252;-65
2023/08/17 11:46:10;;;;;;;3.50;3.20;;;;;;;;;;5057891;28;20213;-68
2023/08/17 11:48:37;;;;;;;3.47;3.15;;;;;;;;;;5056516;28;20672;-66
2023/08/17 11:51:05;;;;;;;4.50;3.20;;;;;;;;;;5059569;28;20210;-69
2023/08/17 11:53:36;;;;;;;3.30;3.00;;;;;;;;;;5066848;28;20216;-64
2023/08/17 11:56:03;;;;;;;8.60;3.50;;;;;;;;;;5065366;28;20794;-65
2023/08/17 11:58:46;;;;;;;6.07;3.45;;;;;;;;;;5061959;28;20213;-64
2023/08/17 12:01:15;;;;;;;5.40;3.30;;;;;;;;;;5060102;28;20233;-69
2023/08/17 12:03:44;;;;;;;6.57;2.53;;;;;;;;;;5060960;28;20201;-65
2023/08/17 12:06:15;;;;;;;5.10;2.97;;;;;;;;;;5060944;28;20225;-67
2023/08/17 12:08:46;;;;;;;8.50;2.25;;;;;;;;;;5058790;28;20726;-68
2023/08/17 12:11:17;;;;;;;9.18;2.92;;;;;;;;;;5056217;28;20249;-66
2023/08/17 12:13:49;;;;;;;11.68;3.00;;;;;;;;;;5063642;28;20579;-66
2023/08/17 12:16:17;;;;;;;10.38;3.72;;;;;;;;;;5067504;28;20282;-66
2023/08/17 12:18:46;;;;;;;12.18;3.65;;;;;;;;;;5059420;28;20423;-64
2023/08/17 12:21:13;;;;;;;9.45;4.18;;;;;;;;;;5059397;28;20230;-67
2023/08/17 12:23:40;;;;;;;14.55;4.65;;;;;;;;;;5062292;28;20198;-64
2023/08/17 12:26:08;;;;;;;10.20;4.20;;;;;;;;;;5066023;28;20225;-62
2023/08/17 12:28:35;;;;;;;11.90;3.83;;;;;;;;;;5062438;28;20790;-64
2023/08/17 12:31:03;;;;;;;9.50;4.18;;;;;;;;;;5061182;28;20658;-64
2023/08/17 12:33:31;;;;;;;8.00;4.18;;;;;;;;;;5056000;28;20478;-63
2023/08/17 12:35:58;;;;;;;7.57;4.40;;;;;;;;;;5060210;28;20260;-69
2023/08/17 12:38:26;;;;;;;10.27;5.47;;;;;;;;;;5066468;28;20209;-66
2023/08/17 12:40:53;;;;;;;6.47;4.28;;;;;;;;;;5058435;28;20229;-67
2023/08/17 12:43:21;;;;;;;12.00;4.60;;;;;;;;;;5059400;28;20225;-64
2023/08/17 12:45:48;;;;;;;6.28;4.65;;;;;;;;;;5058451;28;20225;-66
2023/08/17 12:48:15;;;;;;;5.47;4.22;;;;;;;;;;5057483;28;20198;-65
2023/08/17 12:50:43;;;;;;;6.38;4.90;;;;;;;;;;5054888;28;20609;-63
2023/08/17 12:53:11;;;;;;;9.00;4.95;;;;;;;;;;5060723;28;20209;-67
2023/08/17 12:55:38;;;;;;;9.10;4.78;;;;;;;;;;5057517;28;20577;-64
2023/08/17 12:58:09;;;;;;;6.03;5.45;;;;;;;;;;5058618;28;20270;-64
2023/08/17 13:00:37;;;;;;;8.25;5.30;;;;;;;;;;5057756;28;20222;-64
2023/08/17 13:03:04;;;;;;;7.28;5.15;;;;;;;;;;5059411;28;20214;-64
2023/08/17 13:05:33;;;;;;;7.53;4.82;;;;;;;;;;5062333;28;20228;-70
2023/08/17 13:08:00;;;;;;;6.78;5.13;;;;;;;;;;5061638;28;20289;-65
2023/08/17 13:10:28;;;;;;;6.10;5.40;;;;;;;;;;5057787;28;20681;-64
2023/08/17 13:12:58;;;;;;;10.73;6.00;;;;;;;;;;5057702;28;20210;-67
2023/08/17 13:15:26;;;;;;;6.68;6.00;;;;;;;;;;5062576;28;20293;-63
2023/08/17 13:17:53;;;;;;;6.68;5.57;;;;;;;;;;5055843;28;20234;-67
2023/08/17 13:20:21;;;;;;;6.63;5.63;;;;;;;;;;5050391;28;20249;-63
2023/08/17 13:22:49;;;;;;;10.45;6.40;;;;;;;;;;5061498;28;20244;-64
2023/08/17 13:25:16;;;;;;;8.23;6.43;;;;;;;;;;5058074;28;20204;-64
2023/08/17 13:27:43;;;;;;;10.13;5.88;;;;;;;;;;5058587;28;20294;-65
2023/08/17 13:30:11;;;;;;;8.27;7.47;;;;;;;;;;5055930;28;20297;-65
2023/08/17 13:32:38;;;;;;;7.80;6.40;;;;;;;;;;5057251;28;20198;-65
2023/08/17 13:35:06;;;;;;;8.02;6.63;;;;;;;;;;5057680;28;20263;-65
2023/08/17 13:37:34;;;;;;;7.80;5.82;;;;;;;;;;5055239;28;20361;-66
2023/08/17 13:40:01;;;;;;;9.68;6.18;;;;;;;;;;5059733;28;20209;-65
2023/08/17 13:42:29;;;;;;;7.00;6.30;;;;;;;;;;5060889;28;20202;-65
2023/08/17 13:44:57;;;;;;;7.78;6.30;;;;;;;;;;5060462;28;20201;-68
2023/08/17 13:47:24;;;;;;;7.50;6.57;;;;;;;;;;5055749;28;20639;-63
2023/08/17 13:49:51;;;;;;;7.40;6.35;;;;;;;;;;5058663;28;20285;-64
2023/08/17 13:52:18;;;;;;;8.25;6.43;;;;;;;;;;5058303;28;20205;-64
2023/08/17 13:54:46;;;;;;;7.55;6.80;;;;;;;;;;5057912;28;20202;-64
2023/08/17 13:57:13;;;;;;;7.95;7.13;;;;;;;;;;5060052;28;20750;-65
2023/08/17 13:59:40;;;;;;;10.27;7.72;;;;;;;;;;5057336;28;20198;-65
2023/08/17 14:02:08;;;;;;;10.13;8.00;;;;;;;;;;5058397;28;20708;-65
2023/08/17 14:04:35;;;;;;;8.40;7.57;;;;;;;;;;5054833;28;20737;-64
2023/08/17 14:07:03;;;;;;;8.05;7.35;;;;;;;;;;5060155;28;20240;-65
2023/08/17 14:09:30;;;;;;;8.45;7.65;;;;;;;;;;5060467;28;20201;-67
2023/08/17 14:11:59;;;;;;;8.73;7.82;;;;;;;;;;5061795;28;20579;-65
2023/08/17 14:14:27;;;;;;;8.73;7.00;;;;;;;;;;5056310;28;20649;-67
2023/08/17 14:16:54;;;;;;;8.35;7.55;;;;;;;;;;5055112;28;20226;-67
2023/08/17 14:19:22;;;;;;;8.15;7.07;;;;;;;;;;5048161;28;20570;-66
2023/08/17 14:21:49;;;;;;;8.02;7.22;;;;;;;;;;5055737;28;20230;-66
2023/08/17 14:24:16;;;;;;;8.32;7.53;;;;;;;;;;5060051;28;20581;-64
2023/08/17 14:26:44;;;;;;;7.53;6.72;;;;;;;;;;5056962;28;20229;-64
2023/08/17 14:29:11;;;;;;;8.05;7.25;;;;;;;;;;5060071;28;20741;-65
2023/08/17 14:31:39;;;;;;;8.30;7.50;;;;;;;;;;5064948;28;20232;-63
2023/08/17 14:34:06;;;;;;;8.93;7.25;;;;;;;;;;5055844;28;20213;-65
2023/08/17 14:36:33;;;;;;;7.63;6.93;;;;;;;;;;5058701;28;20232;-67
2023/08/17 14:39:00;;;;;;;9.80;6.50;;;;;;;;;;5053681;28;20231;-63
2023/08/17 14:41:32;;;;;;;10.38;6.63;;;;;;;;;;5061386;28;20229;-68
2023/08/17 14:43:59;;;;;;;7.40;6.72;;;;;;;;;;5059100;28;20742;-65
2023/08/17 14:46:29;;;;;;;8.57;6.65;;;;;;;;;;5059559;28;20243;-63
2023/08/17 14:48:57;;;;;;;6.60;6.07;;;;;;;;;;5053964;28;20201;-69
2023/08/17 14:51:25;;;;;;;7.65;6.80;;;;;;;;;;5058262;28;20202;-64